sensor_id;sensor_type;location;lat;lon;timestamp;pressure;altitude;pressure_sealevel;temperature;humidity
62600;BME280;48671;48.922;2.346;2022-10-22T00:02:15;100719.97;;;17.49;64.59
62600;BME280;48671;48.922;2.346;2022-10-22T00:04:44;100747.13;;;17.62;64.80
62600;BME280;48671;48.922;2.346;2022-10-22T00:07:10;100760.00;;;17.67;65.04
62600;BME280;48671;48.922;2.346;2022-10-22T00:09:35;100747.13;;;17.62;64.72
62600;BME280;48671;48.922;2.346;2022-10-22T00:12:00;100764.72;;;17.62;64.89
62600;BME280;48671;48.922;2.346;2022-10-22T00:14:25;100752.81;;;17.43;64.59
62600;BME280;48671;48.922;2.346;2022-10-22T00:16:51;100756.38;;;17.42;64.96
62600;BME280;48671;48.922;2.346;2022-10-22T00:19:16;100779.16;;;17.56;65.02
62600;BME280;48671;48.922;2.346;2022-10-22T00:21:41;100770.28;;;17.44;64.99
62600;BME280;48671;48.922;2.346;2022-10-22T00:24:07;100787.31;;;17.51;65.44
62600;BME280;48671;48.922;2.346;2022-10-22T00:26:32;100774.16;;;17.39;65.01
62600;BME280;48671;48.922;2.346;2022-10-22T00:28:57;100799.31;;;17.55;65.19
62600;BME280;48671;48.922;2.346;2022-10-22T00:31:23;100807.34;;;17.54;65.00
62600;BME280;48671;48.922;2.346;2022-10-22T00:33:48;100785.63;;;17.38;64.96
62600;BME280;48671;48.922;2.346;2022-10-22T00:36:14;100808.56;;;17.48;64.74
62600;BME280;48671;48.922;2.346;2022-10-22T00:38:40;100804.16;;;17.49;64.75
62600;BME280;48671;48.922;2.346;2022-10-22T00:41:06;100796.66;;;17.30;65.30
62600;BME280;48671;48.922;2.346;2022-10-22T00:43:31;100797.13;;;17.22;65.27
62600;BME280;48671;48.922;2.346;2022-10-22T00:45:57;100787.22;;;17.13;65.69
62600;BME280;48671;48.922;2.346;2022-10-22T00:48:25;100811.03;;;17.24;65.74
62600;BME280;48671;48.922;2.346;2022-10-22T00:51:05;100806.50;;;17.26;65.56
62600;BME280;48671;48.922;2.346;2022-10-22T00:53:53;100808.94;;;17.29;65.85
62600;BME280;48671;48.922;2.346;2022-10-22T00:56:21;100804.81;;;17.25;65.67
62600;BME280;48671;48.922;2.346;2022-10-22T00:58:52;100773.09;;;17.01;65.79
62600;BME280;48671;48.922;2.346;2022-10-22T01:01:23;100827.25;;;17.31;65.52
62600;BME280;48671;48.922;2.346;2022-10-22T01:03:50;100823.97;;;17.27;65.41
62600;BME280;48671;48.922;2.346;2022-10-22T01:06:29;100828.59;;;17.24;65.91
62600;BME280;48671;48.922;2.346;2022-10-22T01:12:03;100839.97;;;17.24;65.89
62600;BME280;48671;48.922;2.346;2022-10-22T01:17:53;100851.88;;;17.30;66.24
62600;BME280;48671;48.922;2.346;2022-10-22T01:20:50;100856.38;;;17.28;65.67
62600;BME280;48671;48.922;2.346;2022-10-22T01:29:21;100872.25;;;17.26;65.31
62600;BME280;48671;48.922;2.346;2022-10-22T01:32:17;100873.09;;;17.27;64.96
62600;BME280;48671;48.922;2.346;2022-10-22T01:34:47;100870.56;;;17.25;65.28
62600;BME280;48671;48.922;2.346;2022-10-22T01:37:14;100877.50;;;17.26;64.72
62600;BME280;48671;48.922;2.346;2022-10-22T01:39:43;100881.91;;;17.26;65.19
62600;BME280;48671;48.922;2.346;2022-10-22T01:42:11;100872.66;;;17.20;64.85
62600;BME280;48671;48.922;2.346;2022-10-22T01:44:37;100858.00;;;17.16;64.55
62600;BME280;48671;48.922;2.346;2022-10-22T01:58:18;100875.75;;;17.27;64.51
62600;BME280;48671;48.922;2.346;2022-10-22T02:01:48;100878.63;;;17.37;64.69
62600;BME280;48671;48.922;2.346;2022-10-22T02:04:14;100855.44;;;17.29;64.54
62600;BME280;48671;48.922;2.346;2022-10-22T02:06:42;100880.19;;;17.39;64.53
62600;BME280;48671;48.922;2.346;2022-10-22T02:09:09;100856.25;;;17.29;64.33
62600;BME280;48671;48.922;2.346;2022-10-22T02:11:37;100879.06;;;17.43;64.43
62600;BME280;48671;48.922;2.346;2022-10-22T02:14:04;100876.13;;;17.48;63.96
62600;BME280;48671;48.922;2.346;2022-10-22T02:16:38;100853.88;;;17.39;63.97
62600;BME280;48671;48.922;2.346;2022-10-22T02:19:15;100867.47;;;17.46;64.12
62600;BME280;48671;48.922;2.346;2022-10-22T02:21:44;100866.13;;;17.40;64.00
62600;BME280;48671;48.922;2.346;2022-10-22T02:24:09;100860.09;;;17.38;63.90
62600;BME280;48671;48.922;2.346;2022-10-22T02:26:41;100872.09;;;17.42;63.96
62600;BME280;48671;48.922;2.346;2022-10-22T02:29:14;100866.41;;;17.36;63.87
62600;BME280;48671;48.922;2.346;2022-10-22T02:31:44;100868.63;;;17.42;64.24
62600;BME280;48671;48.922;2.346;2022-10-22T02:34:14;100868.81;;;17.39;63.93
62600;BME280;48671;48.922;2.346;2022-10-22T02:36:41;100864.91;;;17.31;64.16
62600;BME280;48671;48.922;2.346;2022-10-22T02:39:08;100870.81;;;17.35;64.37
62600;BME280;48671;48.922;2.346;2022-10-22T02:41:36;100851.50;;;17.22;64.31
62600;BME280;48671;48.922;2.346;2022-10-22T02:44:07;100879.75;;;17.32;64.23
62600;BME280;48671;48.922;2.346;2022-10-22T02:46:32;100867.09;;;17.25;64.27
62600;BME280;48671;48.922;2.346;2022-10-22T02:48:58;100874.78;;;17.28;64.54
62600;BME280;48671;48.922;2.346;2022-10-22T02:51:23;100881.09;;;17.25;64.46
62600;BME280;48671;48.922;2.346;2022-10-22T02:53:48;100877.03;;;17.20;64.76
62600;BME280;48671;48.922;2.346;2022-10-22T02:56:14;100880.63;;;17.19;64.67
62600;BME280;48671;48.922;2.346;2022-10-22T02:58:39;100879.41;;;17.10;64.49
62600;BME280;48671;48.922;2.346;2022-10-22T03:01:04;100911.78;;;17.25;64.94
62600;BME280;48671;48.922;2.346;2022-10-22T03:03:30;100915.56;;;17.21;64.98
62600;BME280;48671;48.922;2.346;2022-10-22T03:05:55;100880.41;;;16.95;64.65
62600;BME280;48671;48.922;2.346;2022-10-22T03:08:20;100927.00;;;17.20;65.07
62600;BME280;48671;48.922;2.346;2022-10-22T03:10:46;100913.41;;;17.13;64.97
62600;BME280;48671;48.922;2.346;2022-10-22T03:13:11;100870.47;;;16.85;64.78
62600;BME280;48671;48.922;2.346;2022-10-22T03:15:36;100917.28;;;17.07;65.00
62600;BME280;48671;48.922;2.346;2022-10-22T03:18:02;100903.03;;;16.97;65.12
62600;BME280;48671;48.922;2.346;2022-10-22T03:20:27;100921.69;;;17.07;65.41
62600;BME280;48671;48.922;2.346;2022-10-22T03:22:53;100943.38;;;17.11;65.76
62600;BME280;48671;48.922;2.346;2022-10-22T03:25:22;100944.13;;;17.13;65.62
62600;BME280;48671;48.922;2.346;2022-10-22T03:27:49;100942.50;;;17.10;65.31
62600;BME280;48671;48.922;2.346;2022-10-22T03:30:16;100933.44;;;17.01;65.75
62600;BME280;48671;48.922;2.346;2022-10-22T03:32:42;100943.84;;;17.03;65.62
62600;BME280;48671;48.922;2.346;2022-10-22T03:35:07;100943.19;;;16.99;65.62
62600;BME280;48671;48.922;2.346;2022-10-22T03:37:33;100947.22;;;17.05;65.66
62600;BME280;48671;48.922;2.346;2022-10-22T03:40:00;100941.50;;;16.98;65.70
62600;BME280;48671;48.922;2.346;2022-10-22T03:42:25;100968.16;;;17.06;65.89
62600;BME280;48671;48.922;2.346;2022-10-22T03:44:51;100946.00;;;16.96;66.07
62600;BME280;48671;48.922;2.346;2022-10-22T03:47:17;100959.53;;;17.04;66.25
62600;BME280;48671;48.922;2.346;2022-10-22T03:49:42;100957.63;;;17.06;66.11
62600;BME280;48671;48.922;2.346;2022-10-22T03:52:10;100970.97;;;17.03;66.08
62600;BME280;48671;48.922;2.346;2022-10-22T03:54:36;100952.03;;;16.98;65.63
62600;BME280;48671;48.922;2.346;2022-10-22T03:57:03;100967.88;;;17.11;65.74
62600;BME280;48671;48.922;2.346;2022-10-22T03:59:33;100960.38;;;17.05;66.11
62600;BME280;48671;48.922;2.346;2022-10-22T04:01:59;100971.84;;;17.04;66.37
62600;BME280;48671;48.922;2.346;2022-10-22T04:04:24;100963.00;;;17.05;66.19
62600;BME280;48671;48.922;2.346;2022-10-22T04:06:49;100956.25;;;17.01;66.52
62600;BME280;48671;48.922;2.346;2022-10-22T04:09:15;100979.44;;;17.08;66.15
62600;BME280;48671;48.922;2.346;2022-10-22T04:11:40;100968.25;;;17.05;66.53
62600;BME280;48671;48.922;2.346;2022-10-22T04:14:05;100953.69;;;16.99;65.96
62600;BME280;48671;48.922;2.346;2022-10-22T04:16:30;100970.50;;;17.11;66.49
62600;BME280;48671;48.922;2.346;2022-10-22T04:18:57;100967.41;;;17.04;66.40
62600;BME280;48671;48.922;2.346;2022-10-22T04:21:23;100989.38;;;17.18;66.67
62600;BME280;48671;48.922;2.346;2022-10-22T04:23:50;100993.88;;;17.16;66.09
62600;BME280;48671;48.922;2.346;2022-10-22T04:26:16;100991.16;;;17.17;66.44
62600;BME280;48671;48.922;2.346;2022-10-22T04:28:42;100984.69;;;17.08;66.21
62600;BME280;48671;48.922;2.346;2022-10-22T04:31:13;101001.78;;;17.16;66.41
62600;BME280;48671;48.922;2.346;2022-10-22T04:33:39;100993.88;;;17.16;66.38
62600;BME280;48671;48.922;2.346;2022-10-22T04:36:14;100997.53;;;17.13;66.65
62600;BME280;48671;48.922;2.346;2022-10-22T04:38:41;100992.94;;;17.02;66.74
62600;BME280;48671;48.922;2.346;2022-10-22T04:41:12;101004.13;;;17.06;67.38
62600;BME280;48671;48.922;2.346;2022-10-22T04:43:39;100984.69;;;16.94;66.98
62600;BME280;48671;48.922;2.346;2022-10-22T04:46:04;101008.91;;;16.99;66.84
62600;BME280;48671;48.922;2.346;2022-10-22T04:48:30;101015.75;;;17.02;66.80
62600;BME280;48671;48.922;2.346;2022-10-22T04:50:57;101023.00;;;16.98;67.19
62600;BME280;48671;48.922;2.346;2022-10-22T04:53:23;101004.59;;;16.84;67.30
62600;BME280;48671;48.922;2.346;2022-10-22T04:55:48;101023.06;;;16.97;66.80
62600;BME280;48671;48.922;2.346;2022-10-22T04:58:13;101003.19;;;16.93;66.83
62600;BME280;48671;48.922;2.346;2022-10-22T05:00:38;101030.59;;;17.03;66.72
62600;BME280;48671;48.922;2.346;2022-10-22T05:03:04;101011.72;;;16.96;66.71
62600;BME280;48671;48.922;2.346;2022-10-22T05:05:29;101028.06;;;17.01;67.09
62600;BME280;48671;48.922;2.346;2022-10-22T05:07:54;101023.25;;;16.94;66.95
62600;BME280;48671;48.922;2.346;2022-10-22T05:10:20;101016.13;;;16.96;67.42
62600;BME280;48671;48.922;2.346;2022-10-22T05:12:45;101030.88;;;16.98;67.47
62600;BME280;48671;48.922;2.346;2022-10-22T05:15:10;101038.75;;;16.98;67.00
62600;BME280;48671;48.922;2.346;2022-10-22T05:17:36;101031.25;;;16.92;67.24
62600;BME280;48671;48.922;2.346;2022-10-22T05:20:02;101022.69;;;16.89;67.20
62600;BME280;48671;48.922;2.346;2022-10-22T05:22:28;101004.34;;;16.73;67.63
62600;BME280;48671;48.922;2.346;2022-10-22T05:24:53;101021.88;;;16.88;67.09
62600;BME280;48671;48.922;2.346;2022-10-22T05:27:19;101027.00;;;16.90;67.07
62600;BME280;48671;48.922;2.346;2022-10-22T05:29:44;101026.09;;;16.91;67.06
62600;BME280;48671;48.922;2.346;2022-10-22T05:32:09;101021.09;;;16.86;67.43
62600;BME280;48671;48.922;2.346;2022-10-22T05:34:34;101040.56;;;16.98;67.55
62600;BME280;48671;48.922;2.346;2022-10-22T05:37:00;101013.13;;;16.88;67.48
62600;BME280;48671;48.922;2.346;2022-10-22T05:39:26;101028.13;;;17.00;66.90
62600;BME280;48671;48.922;2.346;2022-10-22T05:41:51;101030.59;;;17.03;67.10
62600;BME280;48671;48.922;2.346;2022-10-22T05:44:18;101044.97;;;17.12;67.71
62600;BME280;48671;48.922;2.346;2022-10-22T05:46:43;101041.75;;;17.06;67.16
62600;BME280;48671;48.922;2.346;2022-10-22T05:49:13;101054.25;;;17.03;67.60
62600;BME280;48671;48.922;2.346;2022-10-22T05:51:39;101053.78;;;16.96;67.74
62600;BME280;48671;48.922;2.346;2022-10-22T05:54:06;101045.22;;;16.78;68.74
62600;BME280;48671;48.922;2.346;2022-10-22T05:56:32;101012.66;;;16.51;68.02
62600;BME280;48671;48.922;2.346;2022-10-22T05:58:59;101055.94;;;16.74;69.00
62600;BME280;48671;48.922;2.346;2022-10-22T06:01:28;101028.22;;;16.54;68.52
62600;BME280;48671;48.922;2.346;2022-10-22T06:03:56;101046.91;;;16.63;68.49
62600;BME280;48671;48.922;2.346;2022-10-22T06:06:28;101055.47;;;16.67;68.37
62600;BME280;48671;48.922;2.346;2022-10-22T06:09:00;101058.19;;;16.66;68.29
62600;BME280;48671;48.922;2.346;2022-10-22T06:11:26;101041.47;;;16.52;68.54
62600;BME280;48671;48.922;2.346;2022-10-22T06:13:51;101053.41;;;16.58;68.77
62600;BME280;48671;48.922;2.346;2022-10-22T06:16:17;101042.31;;;16.53;68.90
62600;BME280;48671;48.922;2.346;2022-10-22T06:18:42;101050.84;;;16.56;68.91
62600;BME280;48671;48.922;2.346;2022-10-22T06:21:10;101057.72;;;16.59;69.41
62600;BME280;48671;48.922;2.346;2022-10-22T06:23:36;101055.53;;;16.51;69.23
62600;BME280;48671;48.922;2.346;2022-10-22T06:26:03;101064.16;;;16.53;69.33
62600;BME280;48671;48.922;2.346;2022-10-22T06:28:30;101060.38;;;16.43;70.08
62600;BME280;48671;48.922;2.346;2022-10-22T06:30:59;101055.75;;;16.32;69.40
62600;BME280;48671;48.922;2.346;2022-10-22T06:33:26;101089.69;;;16.51;69.57
62600;BME280;48671;48.922;2.346;2022-10-22T06:35:52;101084.59;;;16.48;69.44
62600;BME280;48671;48.922;2.346;2022-10-22T06:38:18;101081.81;;;16.51;69.26
62600;BME280;48671;48.922;2.346;2022-10-22T06:40:43;101073.72;;;16.54;69.01
62600;BME280;48671;48.922;2.346;2022-10-22T06:43:12;101043.34;;;16.34;69.09
62600;BME280;48671;48.922;2.346;2022-10-22T06:45:38;101086.84;;;16.54;69.15
62600;BME280;48671;48.922;2.346;2022-10-22T06:48:03;101084.34;;;16.53;69.41
62600;BME280;48671;48.922;2.346;2022-10-22T06:50:29;101105.72;;;16.61;68.77
62600;BME280;48671;48.922;2.346;2022-10-22T06:52:55;101098.91;;;16.58;69.56
62600;BME280;48671;48.922;2.346;2022-10-22T06:55:21;101094.56;;;16.57;68.96
62600;BME280;48671;48.922;2.346;2022-10-22T06:57:46;101109.38;;;16.74;69.06
62600;BME280;48671;48.922;2.346;2022-10-22T07:00:12;101096.38;;;16.87;68.57
62600;BME280;48671;48.922;2.346;2022-10-22T07:02:37;101117.09;;;17.07;68.13
62600;BME280;48671;48.922;2.346;2022-10-22T07:05:03;101119.13;;;17.02;67.90
62600;BME280;48671;48.922;2.346;2022-10-22T07:07:28;101109.25;;;16.92;68.12
62600;BME280;48671;48.922;2.346;2022-10-22T07:09:54;101108.09;;;16.81;68.02
62600;BME280;48671;48.922;2.346;2022-10-22T07:12:19;101114.56;;;16.76;68.56
62600;BME280;48671;48.922;2.346;2022-10-22T07:14:44;101125.91;;;16.76;68.87
62600;BME280;48671;48.922;2.346;2022-10-22T07:17:09;101115.41;;;16.76;68.52
62600;BME280;48671;48.922;2.346;2022-10-22T07:19:35;101133.88;;;17.05;67.70
62600;BME280;48671;48.922;2.346;2022-10-22T07:22:00;101121.28;;;17.10;67.13
62600;BME280;48671;48.922;2.346;2022-10-22T07:24:26;101143.97;;;17.27;67.05
62600;BME280;48671;48.922;2.346;2022-10-22T07:26:51;101143.97;;;17.27;66.92
62600;BME280;48671;48.922;2.346;2022-10-22T07:29:17;101144.03;;;17.25;66.71
62600;BME280;48671;48.922;2.346;2022-10-22T07:31:42;101157.56;;;17.19;66.79
62600;BME280;48671;48.922;2.346;2022-10-22T07:34:08;101144.88;;;17.12;66.62
62600;BME280;48671;48.922;2.346;2022-10-22T07:36:34;101137.00;;;17.12;66.46
62600;BME280;48671;48.922;2.346;2022-10-22T07:39:00;101159.47;;;17.46;66.54
62600;BME280;48671;48.922;2.346;2022-10-22T07:41:28;101133.56;;;17.54;65.63
62600;BME280;48671;48.922;2.346;2022-10-22T07:43:54;101150.28;;;17.82;64.87
62600;BME280;48671;48.922;2.346;2022-10-22T07:46:20;101161.78;;;17.81;65.21
62600;BME280;48671;48.922;2.346;2022-10-22T07:48:46;101149.91;;;17.73;64.57
62600;BME280;48671;48.922;2.346;2022-10-22T07:51:11;101165.69;;;17.73;64.89
62600;BME280;48671;48.922;2.346;2022-10-22T07:53:37;101175.88;;;17.80;64.71
62600;BME280;48671;48.922;2.346;2022-10-22T07:56:02;101163.16;;;17.72;65.26
62600;BME280;48671;48.922;2.346;2022-10-22T07:58:28;101175.78;;;17.81;65.37
62600;BME280;48671;48.922;2.346;2022-10-22T08:00:55;101185.75;;;17.90;65.25
62600;BME280;48671;48.922;2.346;2022-10-22T08:03:21;101180.25;;;18.08;64.42
62600;BME280;48671;48.922;2.346;2022-10-22T08:05:46;101179.13;;;18.26;64.42
62600;BME280;48671;48.922;2.346;2022-10-22T08:08:14;101193.69;;;18.59;63.31
62600;BME280;48671;48.922;2.346;2022-10-22T08:10:40;101172.38;;;18.76;62.89
62600;BME280;48671;48.922;2.346;2022-10-22T08:13:06;101178.97;;;18.96;62.33
62600;BME280;48671;48.922;2.346;2022-10-22T08:15:32;101169.28;;;19.09;62.70
62600;BME280;48671;48.922;2.346;2022-10-22T08:17:58;101188.13;;;19.43;61.58
62600;BME280;48671;48.922;2.346;2022-10-22T08:20:23;101180.31;;;19.54;61.39
62600;BME280;48671;48.922;2.346;2022-10-22T08:22:49;101165.53;;;19.52;60.46
62600;BME280;48671;48.922;2.346;2022-10-22T08:25:14;101195.84;;;19.72;59.56
62600;BME280;48671;48.922;2.346;2022-10-22T08:27:40;101156.88;;;19.37;59.98
62600;BME280;48671;48.922;2.346;2022-10-22T08:30:06;101185.09;;;19.62;60.48
62600;BME280;48671;48.922;2.346;2022-10-22T08:32:32;101181.47;;;19.63;60.28
62600;BME280;48671;48.922;2.346;2022-10-22T08:34:57;101181.78;;;19.84;59.98
62600;BME280;48671;48.922;2.346;2022-10-22T08:37:22;101172.69;;;19.88;59.77
62600;BME280;48671;48.922;2.346;2022-10-22T08:39:48;101189.91;;;19.94;59.34
62600;BME280;48671;48.922;2.346;2022-10-22T08:50:45;101185.19;;;19.86;59.02
62600;BME280;48671;48.922;2.346;2022-10-22T08:53:20;101168.94;;;19.67;58.92
62600;BME280;48671;48.922;2.346;2022-10-22T08:55:46;101191.94;;;19.77;59.82
62600;BME280;48671;48.922;2.346;2022-10-22T09:00:46;101161.75;;;19.56;59.55
62600;BME280;48671;48.922;2.346;2022-10-22T09:03:27;101199.97;;;19.88;59.47
62600;BME280;48671;48.922;2.346;2022-10-22T09:08:30;101165.31;;;19.80;58.55
62600;BME280;48671;48.922;2.346;2022-10-22T09:13:46;101133.84;;;19.90;58.65
62600;BME280;48671;48.922;2.346;2022-10-22T09:19:38;101153.66;;;20.08;56.22
62600;BME280;48671;48.922;2.346;2022-10-22T09:27:40;101191.22;;;20.62;57.53
62600;BME280;48671;48.922;2.346;2022-10-22T09:30:06;101193.81;;;20.74;55.67
62600;BME280;48671;48.922;2.346;2022-10-22T09:32:31;101201.78;;;20.86;57.43
62600;BME280;48671;48.922;2.346;2022-10-22T09:34:57;101194.16;;;20.94;57.34
62600;BME280;48671;48.922;2.346;2022-10-22T09:37:28;101209.00;;;21.19;56.75
62600;BME280;48671;48.922;2.346;2022-10-22T09:39:55;101199.28;;;21.31;56.58
62600;BME280;48671;48.922;2.346;2022-10-22T09:42:21;101207.31;;;21.53;55.77
62600;BME280;48671;48.922;2.346;2022-10-22T09:44:56;101205.16;;;21.69;55.63
62600;BME280;48671;48.922;2.346;2022-10-22T09:50:21;101186.75;;;22.02;55.96
62600;BME280;48671;48.922;2.346;2022-10-22T09:53:05;101179.50;;;22.15;54.88
62600;BME280;48671;48.922;2.346;2022-10-22T09:55:38;101190.44;;;22.33;54.41
62600;BME280;48671;48.922;2.346;2022-10-22T09:58:03;101184.41;;;22.42;54.15
62600;BME280;48671;48.922;2.346;2022-10-22T10:00:29;101193.19;;;22.54;54.28
62600;BME280;48671;48.922;2.346;2022-10-22T10:02:57;101190.16;;;22.58;53.89
62600;BME280;48671;48.922;2.346;2022-10-22T10:05:30;101190.47;;;22.65;53.23
62600;BME280;48671;48.922;2.346;2022-10-22T10:07:56;101197.25;;;22.58;53.42
62600;BME280;48671;48.922;2.346;2022-10-22T10:10:40;101190.41;;;22.55;52.37
62600;BME280;48671;48.922;2.346;2022-10-22T10:16:06;101187.13;;;22.63;53.39
62600;BME280;48671;48.922;2.346;2022-10-22T10:21:36;101201.81;;;22.67;52.40
62600;BME280;48671;48.922;2.346;2022-10-22T10:26:57;101210.72;;;22.77;50.86
62600;BME280;48671;48.922;2.346;2022-10-22T10:35:27;101199.44;;;22.53;52.75
62600;BME280;48671;48.922;2.346;2022-10-22T10:46:02;101166.13;;;22.92;51.56
62600;BME280;48671;48.922;2.346;2022-10-22T10:51:35;101208.38;;;23.37;51.81
62600;BME280;48671;48.922;2.346;2022-10-22T10:56:43;101206.44;;;23.81;50.38
62600;BME280;48671;48.922;2.346;2022-10-22T10:59:18;101207.31;;;23.91;50.72
62600;BME280;48671;48.922;2.346;2022-10-22T11:02:29;101211.81;;;24.00;49.83
62600;BME280;48671;48.922;2.346;2022-10-22T11:05:21;101202.09;;;23.90;50.47
62600;BME280;48671;48.922;2.346;2022-10-22T11:07:59;101207.47;;;23.99;50.63
62600;BME280;48671;48.922;2.346;2022-10-22T11:10:39;101198.25;;;24.03;49.11
62600;BME280;48671;48.922;2.346;2022-10-22T11:13:16;101197.88;;;23.77;49.58
62600;BME280;48671;48.922;2.346;2022-10-22T11:15:47;101206.28;;;23.82;49.95
62600;BME280;48671;48.922;2.346;2022-10-22T11:18:48;101208.47;;;24.08;50.17
62600;BME280;48671;48.922;2.346;2022-10-22T11:21:33;101206.94;;;24.15;47.16
62600;BME280;48671;48.922;2.346;2022-10-22T11:26:45;101195.84;;;23.91;49.04
62600;BME280;48671;48.922;2.346;2022-10-22T11:29:16;101189.63;;;23.80;48.77
62600;BME280;48671;48.922;2.346;2022-10-22T11:31:45;101185.22;;;23.91;47.72
62600;BME280;48671;48.922;2.346;2022-10-22T11:36:52;101195.63;;;24.23;48.39
62600;BME280;48671;48.922;2.346;2022-10-22T11:39:53;101190.78;;;24.38;47.71
62600;BME280;48671;48.922;2.346;2022-10-22T11:43:24;101183.75;;;24.27;46.88
62600;BME280;48671;48.922;2.346;2022-10-22T11:45:34;101170.88;;;24.22;47.79
62600;BME280;48671;48.922;2.346;2022-10-22T11:53:17;101191.50;;;24.40;45.72
62600;BME280;48671;48.922;2.346;2022-10-22T11:55:46;101180.97;;;24.38;45.30
62600;BME280;48671;48.922;2.346;2022-10-22T12:00:57;101184.59;;;24.27;46.06
62600;BME280;48671;48.922;2.346;2022-10-22T12:03:37;101185.59;;;24.36;44.86
62600;BME280;48671;48.922;2.346;2022-10-22T12:14:00;101179.75;;;24.52;45.69
62600;BME280;48671;48.922;2.346;2022-10-22T12:16:37;101174.66;;;24.20;46.66
62600;BME280;48671;48.922;2.346;2022-10-22T12:19:12;101174.72;;;23.99;47.62
62600;BME280;48671;48.922;2.346;2022-10-22T12:21:39;101181.69;;;23.90;47.21
62600;BME280;48671;48.922;2.346;2022-10-22T12:24:05;101146.66;;;23.45;46.90
62600;BME280;48671;48.922;2.346;2022-10-22T12:26:32;101171.34;;;23.35;47.47
62600;BME280;48671;48.922;2.346;2022-10-22T12:29:04;101182.88;;;23.25;48.06
62600;BME280;48671;48.922;2.346;2022-10-22T12:31:35;101168.44;;;23.18;48.66
62600;BME280;48671;48.922;2.346;2022-10-22T12:34:01;101173.88;;;23.16;48.75
62600;BME280;48671;48.922;2.346;2022-10-22T12:36:28;101167.84;;;23.14;48.44
62600;BME280;48671;48.922;2.346;2022-10-22T12:38:54;101151.28;;;23.01;47.65
62600;BME280;48671;48.922;2.346;2022-10-22T12:41:21;101148.03;;;22.97;47.26
62600;BME280;48671;48.922;2.346;2022-10-22T12:43:58;101138.53;;;22.95;47.04
62600;BME280;48671;48.922;2.346;2022-10-22T12:46:23;101131.34;;;23.06;47.54
62600;BME280;48671;48.922;2.346;2022-10-22T12:48:49;101149.84;;;23.39;47.09
62600;BME280;48671;48.922;2.346;2022-10-22T12:51:18;101156.25;;;23.67;46.97
62600;BME280;48671;48.922;2.346;2022-10-22T12:53:47;101141.28;;;23.96;46.72
62600;BME280;48671;48.922;2.346;2022-10-22T12:56:17;101158.63;;;24.60;46.15
62600;BME280;48671;48.922;2.346;2022-10-22T12:58:49;101146.41;;;25.06;43.97
62600;BME280;48671;48.922;2.346;2022-10-22T13:01:16;101134.88;;;25.35;43.71
62600;BME280;48671;48.922;2.346;2022-10-22T13:03:46;101115.16;;;25.55;43.89
62600;BME280;48671;48.922;2.346;2022-10-22T13:08:42;101119.97;;;26.25;40.01
62600;BME280;48671;48.922;2.346;2022-10-22T13:11:09;101108.94;;;26.37;42.44
62600;BME280;48671;48.922;2.346;2022-10-22T13:18:41;101124.06;;;26.91;40.60
62600;BME280;48671;48.922;2.346;2022-10-22T13:21:40;101122.03;;;27.11;39.22
62600;BME280;48671;48.922;2.346;2022-10-22T13:24:23;101117.00;;;27.25;41.29
62600;BME280;48671;48.922;2.346;2022-10-22T13:26:51;101117.09;;;27.42;40.62
62600;BME280;48671;48.922;2.346;2022-10-22T13:29:20;101116.56;;;27.38;40.28
62600;BME280;48671;48.922;2.346;2022-10-22T13:31:49;101114.88;;;27.11;38.66
62600;BME280;48671;48.922;2.346;2022-10-22T13:34:21;101114.56;;;26.88;39.55
62600;BME280;48671;48.922;2.346;2022-10-22T13:36:47;101115.13;;;27.00;39.97
62600;BME280;48671;48.922;2.346;2022-10-22T13:44:17;101105.94;;;27.20;37.97
62600;BME280;48671;48.922;2.346;2022-10-22T13:54:22;101090.41;;;27.24;38.47
62600;BME280;48671;48.922;2.346;2022-10-22T13:56:48;101078.38;;;27.20;38.73
62600;BME280;48671;48.922;2.346;2022-10-22T13:59:14;101083.16;;;27.34;39.17
62600;BME280;48671;48.922;2.346;2022-10-22T14:01:40;101083.88;;;27.44;37.93
62600;BME280;48671;48.922;2.346;2022-10-22T14:04:09;101090.88;;;27.45;38.59
62600;BME280;48671;48.922;2.346;2022-10-22T14:06:36;101075.88;;;27.52;38.60
62600;BME280;48671;48.922;2.346;2022-10-22T14:09:05;101085.91;;;27.59;38.18
62600;BME280;48671;48.922;2.346;2022-10-22T14:11:33;101092.47;;;27.72;36.14
62600;BME280;48671;48.922;2.346;2022-10-22T14:16:36;101082.38;;;28.09;38.15
62600;BME280;48671;48.922;2.346;2022-10-22T14:19:02;101079.56;;;28.10;36.78
62600;BME280;48671;48.922;2.346;2022-10-22T14:21:35;101079.75;;;28.17;35.89
62600;BME280;48671;48.922;2.346;2022-10-22T14:24:02;101068.38;;;28.07;37.13
62600;BME280;48671;48.922;2.346;2022-10-22T14:26:38;101053.66;;;28.11;35.65
62600;BME280;48671;48.922;2.346;2022-10-22T14:29:03;101063.38;;;28.20;35.39
62600;BME280;48671;48.922;2.346;2022-10-22T14:31:29;101068.22;;;28.33;35.92
62600;BME280;48671;48.922;2.346;2022-10-22T14:33:54;101063.25;;;28.46;34.00
62600;BME280;48671;48.922;2.346;2022-10-22T14:36:20;101054.38;;;28.45;35.35
62600;BME280;48671;48.922;2.346;2022-10-22T14:41:22;101057.84;;;28.30;35.14
62600;BME280;48671;48.922;2.346;2022-10-22T14:43:50;101055.81;;;28.32;36.25
62600;BME280;48671;48.922;2.346;2022-10-22T14:46:16;101051.31;;;28.24;36.25
62600;BME280;48671;48.922;2.346;2022-10-22T14:48:42;101046.78;;;28.00;36.39
62600;BME280;48671;48.922;2.346;2022-10-22T14:56:18;101047.47;;;27.51;36.58
62600;BME280;48671;48.922;2.346;2022-10-22T15:01:22;101047.34;;;27.19;36.55
62600;BME280;48671;48.922;2.346;2022-10-22T15:03:47;101012.03;;;26.81;36.60
62600;BME280;48671;48.922;2.346;2022-10-22T15:06:13;101038.72;;;26.81;37.55
62600;BME280;48671;48.922;2.346;2022-10-22T15:08:38;101028.22;;;26.53;37.72
62600;BME280;48671;48.922;2.346;2022-10-22T15:11:06;101048.09;;;26.41;37.39
62600;BME280;48671;48.922;2.346;2022-10-22T15:13:31;101040.94;;;26.06;37.23